sensor_id;sensor_type;location;lat;lon;timestamp;P1;durP1;ratioP1;P2;durP2;ratioP2
6290;SDS011;3178;48.730;8.990;2023-04-15T00:01:32;6.87;;;3.40;;
6290;SDS011;3178;48.730;8.990;2023-04-15T00:04:00;5.77;;;3.00;;
6290;SDS011;3178;48.730;8.990;2023-04-15T00:06:26;22.83;;;3.70;;
6290;SDS011;3178;48.730;8.990;2023-04-15T00:08:52;4.10;;;2.73;;
6290;SDS011;3178;48.730;8.990;2023-04-15T00:11:17;6.50;;;3.10;;
6290;SDS011;3178;48.730;8.990;2023-04-15T00:13:44;7.73;;;2.70;;
6290;SDS011;3178;48.730;8.990;2023-04-15T00:16:10;8.47;;;3.43;;
6290;SDS011;3178;48.730;8.990;2023-04-15T00:18:36;12.93;;;4.50;;
6290;SDS011;3178;48.730;8.990;2023-04-15T00:21:02;6.07;;;2.77;;
6290;SDS011;3178;48.730;8.990;2023-04-15T00:23:28;7.00;;;3.23;;
6290;SDS011;3178;48.730;8.990;2023-04-15T00:25:54;4.27;;;2.60;;
6290;SDS011;3178;48.730;8.990;2023-04-15T00:28:20;8.43;;;2.73;;
6290;SDS011;3178;48.730;8.990;2023-04-15T00:30:46;7.67;;;2.60;;
6290;SDS011;3178;48.730;8.990;2023-04-15T00:33:12;11.23;;;4.07;;
6290;SDS011;3178;48.730;8.990;2023-04-15T00:35:38;9.40;;;2.90;;
6290;SDS011;3178;48.730;8.990;2023-04-15T00:38:04;7.90;;;2.80;;
6290;SDS011;3178;48.730;8.990;2023-04-15T00:40:34;10.93;;;3.17;;
6290;SDS011;3178;48.730;8.990;2023-04-15T00:42:59;7.40;;;2.70;;
6290;SDS011;3178;48.730;8.990;2023-04-15T00:45:25;7.33;;;3.13;;
6290;SDS011;3178;48.730;8.990;2023-04-15T00:47:54;7.43;;;3.00;;
6290;SDS011;3178;48.730;8.990;2023-04-15T00:50:21;8.70;;;3.20;;
6290;SDS011;3178;48.730;8.990;2023-04-15T00:52:46;10.60;;;3.80;;
6290;SDS011;3178;48.730;8.990;2023-04-15T00:55:12;6.87;;;3.17;;
6290;SDS011;3178;48.730;8.990;2023-04-15T00:57:38;6.70;;;2.70;;
6290;SDS011;3178;48.730;8.990;2023-04-15T01:00:04;6.87;;;3.00;;
6290;SDS011;3178;48.730;8.990;2023-04-15T01:02:33;7.90;;;3.13;;
6290;SDS011;3178;48.730;8.990;2023-04-15T01:05:00;11.53;;;2.97;;
6290;SDS011;3178;48.730;8.990;2023-04-15T01:07:25;5.60;;;2.70;;
6290;SDS011;3178;48.730;8.990;2023-04-15T01:09:51;5.33;;;2.80;;
6290;SDS011;3178;48.730;8.990;2023-04-15T01:12:18;4.67;;;2.60;;
6290;SDS011;3178;48.730;8.990;2023-04-15T01:14:44;5.17;;;3.03;;
6290;SDS011;3178;48.730;8.990;2023-04-15T01:17:10;10.13;;;4.77;;
6290;SDS011;3178;48.730;8.990;2023-04-15T01:19:37;7.43;;;3.50;;
6290;SDS011;3178;48.730;8.990;2023-04-15T01:22:02;16.93;;;8.93;;
6290;SDS011;3178;48.730;8.990;2023-04-15T01:24:29;16.60;;;5.10;;
6290;SDS011;3178;48.730;8.990;2023-04-15T01:26:56;12.47;;;4.00;;
6290;SDS011;3178;48.730;8.990;2023-04-15T01:29:22;8.70;;;3.77;;
6290;SDS011;3178;48.730;8.990;2023-04-15T01:31:51;7.37;;;3.27;;
6290;SDS011;3178;48.730;8.990;2023-04-15T01:34:18;9.10;;;2.83;;
6290;SDS011;3178;48.730;8.990;2023-04-15T01:36:43;17.03;;;3.30;;
6290;SDS011;3178;48.730;8.990;2023-04-15T01:39:09;6.33;;;3.20;;
6290;SDS011;3178;48.730;8.990;2023-04-15T01:41:34;7.83;;;3.50;;
6290;SDS011;3178;48.730;8.990;2023-04-15T01:44:00;5.77;;;3.43;;
6290;SDS011;3178;48.730;8.990;2023-04-15T01:46:26;5.57;;;3.40;;
6290;SDS011;3178;48.730;8.990;2023-04-15T01:48:51;6.10;;;3.37;;
6290;SDS011;3178;48.730;8.990;2023-04-15T01:51:17;9.43;;;3.57;;
6290;SDS011;3178;48.730;8.990;2023-04-15T01:53:42;8.93;;;3.10;;
6290;SDS011;3178;48.730;8.990;2023-04-15T01:56:08;11.80;;;3.87;;
6290;SDS011;3178;48.730;8.990;2023-04-15T01:58:33;7.67;;;3.60;;
6290;SDS011;3178;48.730;8.990;2023-04-15T02:00:59;7.53;;;3.00;;
6290;SDS011;3178;48.730;8.990;2023-04-15T02:03:27;6.03;;;4.00;;
6290;SDS011;3178;48.730;8.990;2023-04-15T02:05:53;9.10;;;3.70;;
6290;SDS011;3178;48.730;8.990;2023-04-15T02:08:19;8.80;;;3.53;;
6290;SDS011;3178;48.730;8.990;2023-04-15T02:10:44;9.73;;;3.63;;
6290;SDS011;3178;48.730;8.990;2023-04-15T02:13:10;6.77;;;3.50;;
6290;SDS011;3178;48.730;8.990;2023-04-15T02:15:36;6.83;;;3.47;;
6290;SDS011;3178;48.730;8.990;2023-04-15T02:18:01;13.43;;;3.30;;
6290;SDS011;3178;48.730;8.990;2023-04-15T02:20:28;9.53;;;4.23;;
6290;SDS011;3178;48.730;8.990;2023-04-15T02:22:54;7.43;;;4.13;;
6290;SDS011;3178;48.730;8.990;2023-04-15T02:25:20;9.10;;;3.30;;
6290;SDS011;3178;48.730;8.990;2023-04-15T02:27:46;10.07;;;4.23;;
6290;SDS011;3178;48.730;8.990;2023-04-15T02:30:12;7.27;;;3.57;;
6290;SDS011;3178;48.730;8.990;2023-04-15T02:32:39;16.13;;;3.87;;
6290;SDS011;3178;48.730;8.990;2023-04-15T02:35:07;11.47;;;3.80;;
6290;SDS011;3178;48.730;8.990;2023-04-15T02:37:34;9.10;;;3.37;;
6290;SDS011;3178;48.730;8.990;2023-04-15T02:40:06;6.60;;;3.60;;
6290;SDS011;3178;48.730;8.990;2023-04-15T02:42:33;7.60;;;3.50;;
6290;SDS011;3178;48.730;8.990;2023-04-15T02:44:59;6.40;;;3.40;;
6290;SDS011;3178;48.730;8.990;2023-04-15T02:47:24;9.27;;;3.50;;
6290;SDS011;3178;48.730;8.990;2023-04-15T02:49:50;6.17;;;3.20;;
6290;SDS011;3178;48.730;8.990;2023-04-15T02:52:16;8.57;;;3.70;;
6290;SDS011;3178;48.730;8.990;2023-04-15T02:54:41;6.97;;;3.60;;
6290;SDS011;3178;48.730;8.990;2023-04-15T02:57:07;9.63;;;3.70;;
6290;SDS011;3178;48.730;8.990;2023-04-15T02:59:32;9.63;;;3.60;;
6290;SDS011;3178;48.730;8.990;2023-04-15T03:01:58;11.57;;;3.80;;
6290;SDS011;3178;48.730;8.990;2023-04-15T03:04:26;9.67;;;3.03;;
6290;SDS011;3178;48.730;8.990;2023-04-15T03:06:54;7.50;;;3.87;;
6290;SDS011;3178;48.730;8.990;2023-04-15T03:09:20;8.80;;;3.80;;
6290;SDS011;3178;48.730;8.990;2023-04-15T03:11:45;6.10;;;3.27;;
6290;SDS011;3178;48.730;8.990;2023-04-15T03:14:11;7.80;;;3.77;;
6290;SDS011;3178;48.730;8.990;2023-04-15T03:16:36;9.97;;;3.67;;
6290;SDS011;3178;48.730;8.990;2023-04-15T03:19:02;6.90;;;3.60;;
6290;SDS011;3178;48.730;8.990;2023-04-15T03:21:27;11.30;;;3.47;;
6290;SDS011;3178;48.730;8.990;2023-04-15T03:23:53;7.97;;;3.53;;
6290;SDS011;3178;48.730;8.990;2023-04-15T03:26:25;9.50;;;3.13;;
6290;SDS011;3178;48.730;8.990;2023-04-15T03:28:52;6.90;;;3.73;;
6290;SDS011;3178;48.730;8.990;2023-04-15T03:31:18;8.33;;;3.83;;
6290;SDS011;3178;48.730;8.990;2023-04-15T03:33:43;6.53;;;3.50;;
6290;SDS011;3178;48.730;8.990;2023-04-15T03:36:09;12.90;;;3.27;;
6290;SDS011;3178;48.730;8.990;2023-04-15T03:38:35;7.10;;;3.20;;
6290;SDS011;3178;48.730;8.990;2023-04-15T03:41:00;11.50;;;3.80;;
6290;SDS011;3178;48.730;8.990;2023-04-15T03:43:26;6.07;;;3.10;;
6290;SDS011;3178;48.730;8.990;2023-04-15T03:45:51;10.10;;;3.80;;
6290;SDS011;3178;48.730;8.990;2023-04-15T03:48:17;5.23;;;3.30;;
6290;SDS011;3178;48.730;8.990;2023-04-15T03:50:42;13.50;;;3.70;;
6290;SDS011;3178;48.730;8.990;2023-04-15T03:53:08;7.73;;;3.27;;
6290;SDS011;3178;48.730;8.990;2023-04-15T03:55:33;7.37;;;3.57;;
6290;SDS011;3178;48.730;8.990;2023-04-15T03:57:59;7.73;;;4.13;;
6290;SDS011;3178;48.730;8.990;2023-04-15T04:00:25;9.00;;;3.80;;
6290;SDS011;3178;48.730;8.990;2023-04-15T04:02:50;9.90;;;4.00;;
6290;SDS011;3178;48.730;8.990;2023-04-15T04:05:16;9.53;;;4.40;;
6290;SDS011;3178;48.730;8.990;2023-04-15T04:07:41;6.67;;;3.33;;
6290;SDS011;3178;48.730;8.990;2023-04-15T04:10:07;5.80;;;3.37;;
6290;SDS011;3178;48.730;8.990;2023-04-15T04:12:33;8.63;;;3.20;;
6290;SDS011;3178;48.730;8.990;2023-04-15T04:14:58;7.67;;;3.53;;
6290;SDS011;3178;48.730;8.990;2023-04-15T04:17:24;7.70;;;3.40;;
6290;SDS011;3178;48.730;8.990;2023-04-15T04:19:49;8.93;;;4.37;;
6290;SDS011;3178;48.730;8.990;2023-04-15T04:22:15;11.03;;;4.13;;
6290;SDS011;3178;48.730;8.990;2023-04-15T04:24:40;6.53;;;2.93;;
6290;SDS011;3178;48.730;8.990;2023-04-15T04:27:06;7.50;;;3.47;;
6290;SDS011;3178;48.730;8.990;2023-04-15T04:29:31;8.00;;;3.93;;
6290;SDS011;3178;48.730;8.990;2023-04-15T04:31:57;6.60;;;3.50;;
6290;SDS011;3178;48.730;8.990;2023-04-15T04:34:22;9.97;;;4.90;;
6290;SDS011;3178;48.730;8.990;2023-04-15T04:36:48;6.33;;;3.50;;
6290;SDS011;3178;48.730;8.990;2023-04-15T04:39:13;12.90;;;3.37;;
6290;SDS011;3178;48.730;8.990;2023-04-15T04:41:39;7.70;;;3.60;;
6290;SDS011;3178;48.730;8.990;2023-04-15T04:44:05;9.30;;;3.77;;
6290;SDS011;3178;48.730;8.990;2023-04-15T04:46:31;5.63;;;3.00;;
6290;SDS011;3178;48.730;8.990;2023-04-15T04:48:56;7.77;;;3.20;;
6290;SDS011;3178;48.730;8.990;2023-04-15T04:51:22;4.20;;;3.20;;
6290;SDS011;3178;48.730;8.990;2023-04-15T04:53:47;7.40;;;3.67;;
6290;SDS011;3178;48.730;8.990;2023-04-15T04:56:13;9.93;;;4.00;;
6290;SDS011;3178;48.730;8.990;2023-04-15T04:58:38;8.17;;;3.90;;
6290;SDS011;3178;48.730;8.990;2023-04-15T05:01:04;7.40;;;4.97;;
6290;SDS011;3178;48.730;8.990;2023-04-15T05:03:29;15.87;;;9.30;;
6290;SDS011;3178;48.730;8.990;2023-04-15T05:05:55;14.60;;;9.57;;
6290;SDS011;3178;48.730;8.990;2023-04-15T05:08:20;11.27;;;4.00;;
6290;SDS011;3178;48.730;8.990;2023-04-15T05:10:46;8.60;;;4.00;;
6290;SDS011;3178;48.730;8.990;2023-04-15T05:13:11;6.00;;;3.83;;
6290;SDS011;3178;48.730;8.990;2023-04-15T05:15:37;4.87;;;3.63;;
6290;SDS011;3178;48.730;8.990;2023-04-15T05:18:05;10.80;;;4.00;;
6290;SDS011;3178;48.730;8.990;2023-04-15T05:20:30;7.03;;;4.07;;
6290;SDS011;3178;48.730;8.990;2023-04-15T05:22:56;7.53;;;3.40;;
6290;SDS011;3178;48.730;8.990;2023-04-15T05:25:21;7.00;;;3.90;;
6290;SDS011;3178;48.730;8.990;2023-04-15T05:27:47;5.40;;;3.80;;
6290;SDS011;3178;48.730;8.990;2023-04-15T05:30:13;5.97;;;3.20;;
6290;SDS011;3178;48.730;8.990;2023-04-15T05:32:38;7.80;;;3.63;;
6290;SDS011;3178;48.730;8.990;2023-04-15T05:35:04;10.23;;;3.07;;
6290;SDS011;3178;48.730;8.990;2023-04-15T05:37:30;6.77;;;3.67;;
6290;SDS011;3178;48.730;8.990;2023-04-15T05:39:56;6.20;;;3.20;;
6290;SDS011;3178;48.730;8.990;2023-04-15T05:42:21;5.07;;;3.13;;
6290;SDS011;3178;48.730;8.990;2023-04-15T05:44:47;4.27;;;3.30;;
6290;SDS011;3178;48.730;8.990;2023-04-15T05:47:12;7.33;;;4.00;;
6290;SDS011;3178;48.730;8.990;2023-04-15T05:49:38;9.47;;;3.40;;
6290;SDS011;3178;48.730;8.990;2023-04-15T05:52:03;8.27;;;2.87;;
6290;SDS011;3178;48.730;8.990;2023-04-15T05:54:30;6.00;;;3.50;;
6290;SDS011;3178;48.730;8.990;2023-04-15T05:56:56;5.23;;;2.87;;
6290;SDS011;3178;48.730;8.990;2023-04-15T05:59:22;8.53;;;2.80;;
6290;SDS011;3178;48.730;8.990;2023-04-15T06:01:47;20.63;;;3.03;;
6290;SDS011;3178;48.730;8.990;2023-04-15T06:04:13;6.80;;;3.13;;
6290;SDS011;3178;48.730;8.990;2023-04-15T06:06:39;7.43;;;3.57;;
6290;SDS011;3178;48.730;8.990;2023-04-15T06:09:05;10.70;;;4.00;;
6290;SDS011;3178;48.730;8.990;2023-04-15T06:11:30;5.43;;;4.13;;
6290;SDS011;3178;48.730;8.990;2023-04-15T06:13:56;6.67;;;3.50;;
6290;SDS011;3178;48.730;8.990;2023-04-15T06:16:21;7.73;;;3.03;;
6290;SDS011;3178;48.730;8.990;2023-04-15T06:18:47;5.73;;;3.10;;
6290;SDS011;3178;48.730;8.990;2023-04-15T06:21:13;8.33;;;3.70;;
6290;SDS011;3178;48.730;8.990;2023-04-15T06:23:39;6.60;;;3.90;;
6290;SDS011;3178;48.730;8.990;2023-04-15T06:26:05;7.63;;;3.93;;
6290;SDS011;3178;48.730;8.990;2023-04-15T06:28:31;7.63;;;4.43;;
6290;SDS011;3178;48.730;8.990;2023-04-15T06:30:56;7.40;;;3.57;;
6290;SDS011;3178;48.730;8.990;2023-04-15T06:33:22;10.07;;;3.60;;
6290;SDS011;3178;48.730;8.990;2023-04-15T06:35:47;13.50;;;3.73;;
6290;SDS011;3178;48.730;8.990;2023-04-15T06:38:14;7.80;;;3.50;;
6290;SDS011;3178;48.730;8.990;2023-04-15T06:40:39;6.93;;;4.33;;
6290;SDS011;3178;48.730;8.990;2023-04-15T06:43:05;5.63;;;3.53;;
6290;SDS011;3178;48.730;8.990;2023-04-15T06:45:31;6.40;;;3.50;;
6290;SDS011;3178;48.730;8.990;2023-04-15T06:47:57;11.47;;;3.97;;
6290;SDS011;3178;48.730;8.990;2023-04-15T06:50:22;7.90;;;4.23;;
6290;SDS011;3178;48.730;8.990;2023-04-15T06:52:48;10.03;;;4.20;;
6290;SDS011;3178;48.730;8.990;2023-04-15T06:55:14;8.90;;;3.60;;
6290;SDS011;3178;48.730;8.990;2023-04-15T06:57:40;13.90;;;4.43;;
6290;SDS011;3178;48.730;8.990;2023-04-15T07:00:05;7.13;;;4.00;;
6290;SDS011;3178;48.730;8.990;2023-04-15T07:02:31;6.00;;;3.20;;
6290;SDS011;3178;48.730;8.990;2023-04-15T07:04:57;6.13;;;3.50;;
6290;SDS011;3178;48.730;8.990;2023-04-15T07:07:23;6.70;;;3.83;;
6290;SDS011;3178;48.730;8.990;2023-04-15T07:09:49;9.43;;;4.03;;
6290;SDS011;3178;48.730;8.990;2023-04-15T07:12:15;8.97;;;3.40;;
6290;SDS011;3178;48.730;8.990;2023-04-15T07:14:41;6.73;;;3.97;;
6290;SDS011;3178;48.730;8.990;2023-04-15T07:17:07;7.47;;;3.83;;
6290;SDS011;3178;48.730;8.990;2023-04-15T07:19:33;9.50;;;3.63;;
6290;SDS011;3178;48.730;8.990;2023-04-15T07:21:59;7.60;;;3.40;;
6290;SDS011;3178;48.730;8.990;2023-04-15T07:24:24;15.23;;;4.07;;
6290;SDS011;3178;48.730;8.990;2023-04-15T07:26:50;9.27;;;3.93;;
6290;SDS011;3178;48.730;8.990;2023-04-15T07:29:18;5.73;;;3.20;;
6290;SDS011;3178;48.730;8.990;2023-04-15T07:31:43;7.10;;;3.30;;
6290;SDS011;3178;48.730;8.990;2023-04-15T07:34:09;6.53;;;2.87;;
6290;SDS011;3178;48.730;8.990;2023-04-15T07:36:34;5.77;;;2.80;;
6290;SDS011;3178;48.730;8.990;2023-04-15T07:39:00;11.77;;;3.03;;
6290;SDS011;3178;48.730;8.990;2023-04-15T07:41:28;11.97;;;3.90;;
6290;SDS011;3178;48.730;8.990;2023-04-15T07:43:54;9.70;;;2.97;;
6290;SDS011;3178;48.730;8.990;2023-04-15T07:46:20;10.27;;;4.03;;
6290;SDS011;3178;48.730;8.990;2023-04-15T07:48:45;7.53;;;3.10;;
6290;SDS011;3178;48.730;8.990;2023-04-15T07:51:11;7.60;;;3.13;;
6290;SDS011;3178;48.730;8.990;2023-04-15T07:53:36;6.40;;;3.07;;
6290;SDS011;3178;48.730;8.990;2023-04-15T07:56:02;6.67;;;3.27;;
6290;SDS011;3178;48.730;8.990;2023-04-15T07:58:28;7.60;;;3.67;;
6290;SDS011;3178;48.730;8.990;2023-04-15T08:00:53;4.50;;;2.30;;
6290;SDS011;3178;48.730;8.990;2023-04-15T08:03:20;10.03;;;2.80;;
6290;SDS011;3178;48.730;8.990;2023-04-15T08:05:46;11.60;;;3.13;;
6290;SDS011;3178;48.730;8.990;2023-04-15T08:08:12;4.20;;;2.50;;
6290;SDS011;3178;48.730;8.990;2023-04-15T08:10:37;5.63;;;2.77;;
6290;SDS011;3178;48.730;8.990;2023-04-15T08:13:03;7.23;;;3.03;;
6290;SDS011;3178;48.730;8.990;2023-04-15T08:15:28;4.30;;;2.50;;
6290;SDS011;3178;48.730;8.990;2023-04-15T08:17:54;8.10;;;2.40;;
6290;SDS011;3178;48.730;8.990;2023-04-15T08:20:19;10.73;;;2.63;;
6290;SDS011;3178;48.730;8.990;2023-04-15T08:22:45;10.87;;;3.00;;
6290;SDS011;3178;48.730;8.990;2023-04-15T08:25:15;6.80;;;2.77;;
6290;SDS011;3178;48.730;8.990;2023-04-15T08:27:41;9.10;;;3.20;;
6290;SDS011;3178;48.730;8.990;2023-04-15T08:30:06;4.20;;;2.63;;
6290;SDS011;3178;48.730;8.990;2023-04-15T08:32:32;5.37;;;2.13;;
6290;SDS011;3178;48.730;8.990;2023-04-15T08:34:58;4.20;;;2.10;;
6290;SDS011;3178;48.730;8.990;2023-04-15T08:37:24;6.73;;;2.27;;
6290;SDS011;3178;48.730;8.990;2023-04-15T08:39:50;4.50;;;1.97;;
6290;SDS011;3178;48.730;8.990;2023-04-15T08:42:16;7.23;;;1.80;;
6290;SDS011;3178;48.730;8.990;2023-04-15T08:44:47;5.70;;;2.20;;
6290;SDS011;3178;48.730;8.990;2023-04-15T08:47:13;2.87;;;1.40;;
6290;SDS011;3178;48.730;8.990;2023-04-15T08:49:40;3.93;;;1.50;;
6290;SDS011;3178;48.730;8.990;2023-04-15T08:52:07;3.37;;;1.63;;
6290;SDS011;3178;48.730;8.990;2023-04-15T08:54:33;3.27;;;2.03;;
6290;SDS011;3178;48.730;8.990;2023-04-15T08:56:59;6.20;;;2.40;;
6290;SDS011;3178;48.730;8.990;2023-04-15T08:59:26;11.17;;;2.37;;
6290;SDS011;3178;48.730;8.990;2023-04-15T09:01:54;7.67;;;2.97;;
6290;SDS011;3178;48.730;8.990;2023-04-15T09:04:21;5.47;;;1.80;;
6290;SDS011;3178;48.730;8.990;2023-04-15T09:06:46;3.80;;;3.13;;
6290;SDS011;3178;48.730;8.990;2023-04-15T09:09:12;6.63;;;2.60;;
6290;SDS011;3178;48.730;8.990;2023-04-15T09:11:38;3.23;;;1.90;;
6290;SDS011;3178;48.730;8.990;2023-04-15T09:14:04;8.07;;;2.57;;
6290;SDS011;3178;48.730;8.990;2023-04-15T09:16:29;5.93;;;1.70;;
6290;SDS011;3178;48.730;8.990;2023-04-15T09:18:55;7.60;;;1.80;;
6290;SDS011;3178;48.730;8.990;2023-04-15T09:21:21;5.07;;;1.73;;
6290;SDS011;3178;48.730;8.990;2023-04-15T09:24:21;4.13;;;1.90;;
6290;SDS011;3178;48.730;8.990;2023-04-15T09:26:39;5.10;;;1.90;;
6290;SDS011;3178;48.730;8.990;2023-04-15T09:29:05;3.30;;;2.03;;
6290;SDS011;3178;48.730;8.990;2023-04-15T09:31:32;7.37;;;2.03;;
6290;SDS011;3178;48.730;8.990;2023-04-15T09:33:57;7.40;;;2.43;;
6290;SDS011;3178;48.730;8.990;2023-04-15T09:36:23;5.03;;;1.90;;
6290;SDS011;3178;48.730;8.990;2023-04-15T09:38:59;6.90;;;2.80;;
6290;SDS011;3178;48.730;8.990;2023-04-15T09:41:25;8.73;;;5.50;;
6290;SDS011;3178;48.730;8.990;2023-04-15T09:43:51;7.33;;;2.47;;
6290;SDS011;3178;48.730;8.990;2023-04-15T09:46:17;6.10;;;2.30;;
6290;SDS011;3178;48.730;8.990;2023-04-15T09:48:43;7.63;;;2.70;;
6290;SDS011;3178;48.730;8.990;2023-04-15T09:51:08;7.63;;;2.27;;
6290;SDS011;3178;48.730;8.990;2023-04-15T09:53:34;5.87;;;2.37;;
6290;SDS011;3178;48.730;8.990;2023-04-15T09:56:01;8.47;;;2.50;;
6290;SDS011;3178;48.730;8.990;2023-04-15T09:58:28;3.33;;;1.97;;
6290;SDS011;3178;48.730;8.990;2023-04-15T10:00:55;6.07;;;2.30;;
6290;SDS011;3178;48.730;8.990;2023-04-15T10:03:23;6.50;;;1.80;;
6290;SDS011;3178;48.730;8.990;2023-04-15T10:05:53;2.40;;;1.60;;
6290;SDS011;3178;48.730;8.990;2023-04-15T10:08:23;5.40;;;2.27;;
6290;SDS011;3178;48.730;8.990;2023-04-15T10:10:52;7.70;;;2.20;;
6290;SDS011;3178;48.730;8.990;2023-04-15T10:13:21;5.40;;;2.40;;
6290;SDS011;3178;48.730;8.990;2023-04-15T10:15:59;5.60;;;2.53;;
6290;SDS011;3178;48.730;8.990;2023-04-15T10:18:31;6.83;;;2.50;;
6290;SDS011;3178;48.730;8.990;2023-04-15T10:21:01;7.00;;;2.07;;
6290;SDS011;3178;48.730;8.990;2023-04-15T10:23:29;4.13;;;2.13;;
6290;SDS011;3178;48.730;8.990;2023-04-15T10:25:56;3.70;;;1.83;;
6290;SDS011;3178;48.730;8.990;2023-04-15T10:28:23;10.53;;;2.57;;
6290;SDS011;3178;48.730;8.990;2023-04-15T10:30:50;6.83;;;2.17;;
6290;SDS011;3178;48.730;8.990;2023-04-15T10:33:18;9.33;;;2.40;;
6290;SDS011;3178;48.730;8.990;2023-04-15T10:35:45;5.03;;;2.13;;
6290;SDS011;3178;48.730;8.990;2023-04-15T10:41:18;7.70;;;2.43;;
6290;SDS011;3178;48.730;8.990;2023-04-15T10:49:08;6.63;;;2.50;;
6290;SDS011;3178;48.730;8.990;2023-04-15T10:51:39;6.47;;;2.27;;
6290;SDS011;3178;48.730;8.990;2023-04-15T10:54:12;5.83;;;2.63;;
6290;SDS011;3178;48.730;8.990;2023-04-15T10:59:35;6.83;;;2.53;;
6290;SDS011;3178;48.730;8.990;2023-04-15T11:02:04;4.60;;;2.10;;
6290;SDS011;3178;48.730;8.990;2023-04-15T11:12:45;7.73;;;2.40;;
6290;SDS011;3178;48.730;8.990;2023-04-15T11:16:01;6.03;;;2.30;;
6290;SDS011;3178;48.730;8.990;2023-04-15T11:20:38;4.33;;;2.53;;
6290;SDS011;3178;48.730;8.990;2023-04-15T11:23:11;7.53;;;2.50;;
6290;SDS011;3178;48.730;8.990;2023-04-15T11:25:38;6.53;;;2.73;;
6290;SDS011;3178;48.730;8.990;2023-04-15T11:28:04;9.33;;;2.90;;
6290;SDS011;3178;48.730;8.990;2023-04-15T11:30:31;8.30;;;4.07;;
6290;SDS011;3178;48.730;8.990;2023-04-15T11:32:59;9.10;;;3.17;;
6290;SDS011;3178;48.730;8.990;2023-04-15T11:35:26;6.07;;;2.37;;
6290;SDS011;3178;48.730;8.990;2023-04-15T11:37:52;6.90;;;4.00;;
6290;SDS011;3178;48.730;8.990;2023-04-15T11:40:26;10.63;;;4.40;;
6290;SDS011;3178;48.730;8.990;2023-04-15T11:43:06;5.03;;;2.67;;
6290;SDS011;3178;48.730;8.990;2023-04-15T11:45:33;9.33;;;2.63;;
6290;SDS011;3178;48.730;8.990;2023-04-15T11:50:32;6.13;;;2.40;;
6290;SDS011;3178;48.730;8.990;2023-04-15T11:52:59;7.60;;;3.07;;
6290;SDS011;3178;48.730;8.990;2023-04-15T11:55:29;8.33;;;3.10;;
6290;SDS011;3178;48.730;8.990;2023-04-15T11:58:05;12.63;;;3.07;;
6290;SDS011;3178;48.730;8.990;2023-04-15T12:00:32;7.13;;;2.50;;
6290;SDS011;3178;48.730;8.990;2023-04-15T12:03:10;7.43;;;2.50;;
6290;SDS011;3178;48.730;8.990;2023-04-15T12:06:03;6.30;;;2.27;;
6290;SDS011;3178;48.730;8.990;2023-04-15T12:08:51;7.10;;;2.90;;
6290;SDS011;3178;48.730;8.990;2023-04-15T12:16:47;6.47;;;3.10;;
6290;SDS011;3178;48.730;8.990;2023-04-15T12:19:15;7.70;;;3.43;;
6290;SDS011;3178;48.730;8.990;2023-04-15T12:21:52;10.63;;;3.67;;
6290;SDS011;3178;48.730;8.990;2023-04-15T12:24:30;9.60;;;3.47;;
6290;SDS011;3178;48.730;8.990;2023-04-15T12:27:06;9.83;;;3.40;;
6290;SDS011;3178;48.730;8.990;2023-04-15T12:29:33;6.63;;;3.50;;
6290;SDS011;3178;48.730;8.990;2023-04-15T12:32:07;9.90;;;3.87;;
6290;SDS011;3178;48.730;8.990;2023-04-15T12:34:35;9.43;;;3.67;;
6290;SDS011;3178;48.730;8.990;2023-04-15T12:37:06;7.10;;;3.40;;
6290;SDS011;3178;48.730;8.990;2023-04-15T12:39:39;6.80;;;3.30;;
6290;SDS011;3178;48.730;8.990;2023-04-15T12:42:06;7.37;;;3.50;;
6290;SDS011;3178;48.730;8.990;2023-04-15T12:44:32;7.90;;;3.60;;
6290;SDS011;3178;48.730;8.990;2023-04-15T12:46:59;6.73;;;2.70;;
6290;SDS011;3178;48.730;8.990;2023-04-15T12:49:24;11.70;;;4.70;;
6290;SDS011;3178;48.730;8.990;2023-04-15T12:51:52;7.00;;;3.90;;
6290;SDS011;3178;48.730;8.990;2023-04-15T12:54:19;9.93;;;4.20;;
6290;SDS011;3178;48.730;8.990;2023-04-15T12:56:45;9.57;;;3.50;;
6290;SDS011;3178;48.730;8.990;2023-04-15T12:59:12;5.37;;;3.27;;
6290;SDS011;3178;48.730;8.990;2023-04-15T13:01:39;7.10;;;3.27;;
6290;SDS011;3178;48.730;8.990;2023-04-15T13:04:05;3.63;;;2.40;;
6290;SDS011;3178;48.730;8.990;2023-04-15T13:06:30;6.47;;;3.10;;
6290;SDS011;3178;48.730;8.990;2023-04-15T13:08:58;8.20;;;3.63;;
6290;SDS011;3178;48.730;8.990;2023-04-15T13:11:24;4.70;;;3.10;;
6290;SDS011;3178;48.730;8.990;2023-04-15T13:13:50;7.50;;;3.03;;
6290;SDS011;3178;48.730;8.990;2023-04-15T13:16:18;5.50;;;2.83;;
6290;SDS011;3178;48.730;8.990;2023-04-15T13:18:44;12.70;;;4.30;;
6290;SDS011;3178;48.730;8.990;2023-04-15T13:21:11;5.87;;;2.20;;
6290;SDS011;3178;48.730;8.990;2023-04-15T13:23:37;6.00;;;2.80;;
6290;SDS011;3178;48.730;8.990;2023-04-15T13:26:02;7.50;;;3.30;;
6290;SDS011;3178;48.730;8.990;2023-04-15T13:28:28;4.07;;;2.50;;
6290;SDS011;3178;48.730;8.990;2023-04-15T13:30:53;4.73;;;3.10;;
6290;SDS011;3178;48.730;8.990;2023-04-15T13:33:19;4.70;;;3.20;;
6290;SDS011;3178;48.730;8.990;2023-04-15T13:35:44;6.80;;;2.50;;
6290;SDS011;3178;48.730;8.990;2023-04-15T13:38:10;4.33;;;2.60;;
6290;SDS011;3178;48.730;8.990;2023-04-15T13:40:35;4.50;;;3.30;;
6290;SDS011;3178;48.730;8.990;2023-04-15T13:43:01;5.40;;;3.40;;
6290;SDS011;3178;48.730;8.990;2023-04-15T13:45:27;5.90;;;2.53;;
6290;SDS011;3178;48.730;8.990;2023-04-15T13:47:54;8.27;;;2.60;;
6290;SDS011;3178;48.730;8.990;2023-04-15T13:50:20;4.60;;;2.63;;
6290;SDS011;3178;48.730;8.990;2023-04-15T13:52:46;8.50;;;3.20;;
6290;SDS011;3178;48.730;8.990;2023-04-15T13:55:11;3.50;;;2.80;;
6290;SDS011;3178;48.730;8.990;2023-04-15T13:57:37;6.30;;;3.10;;
6290;SDS011;3178;48.730;8.990;2023-04-15T14:00:03;8.20;;;3.00;;
6290;SDS011;3178;48.730;8.990;2023-04-15T14:02:29;9.07;;;2.67;;
6290;SDS011;3178;48.730;8.990;2023-04-15T14:04:55;4.80;;;2.23;;
6290;SDS011;3178;48.730;8.990;2023-04-15T14:07:20;4.23;;;1.93;;
6290;SDS011;3178;48.730;8.990;2023-04-15T14:09:46;7.33;;;1.80;;
6290;SDS011;3178;48.730;8.990;2023-04-15T14:12:12;5.37;;;1.67;;
6290;SDS011;3178;48.730;8.990;2023-04-15T14:14:38;2.53;;;1.40;;
6290;SDS011;3178;48.730;8.990;2023-04-15T14:17:04;3.10;;;1.63;;
6290;SDS011;3178;48.730;8.990;2023-04-15T14:19:30;5.43;;;2.43;;
6290;SDS011;3178;48.730;8.990;2023-04-15T14:21:56;5.40;;;1.60;;
6290;SDS011;3178;48.730;8.990;2023-04-15T14:24:22;3.23;;;1.87;;
6290;SDS011;3178;48.730;8.990;2023-04-15T14:26:47;2.07;;;1.63;;
6290;SDS011;3178;48.730;8.990;2023-04-15T14:29:13;5.20;;;2.10;;
6290;SDS011;3178;48.730;8.990;2023-04-15T14:31:38;3.60;;;1.50;;
6290;SDS011;3178;48.730;8.990;2023-04-15T14:34:04;2.03;;;1.30;;
6290;SDS011;3178;48.730;8.990;2023-04-15T14:36:30;2.30;;;1.80;;
6290;SDS011;3178;48.730;8.990;2023-04-15T14:38:56;3.80;;;2.23;;
6290;SDS011;3178;48.730;8.990;2023-04-15T14:41:22;4.40;;;2.60;;
6290;SDS011;3178;48.730;8.990;2023-04-15T14:43:48;6.40;;;2.40;;
6290;SDS011;3178;48.730;8.990;2023-04-15T14:46:13;7.13;;;2.10;;
6290;SDS011;3178;48.730;8.990;2023-04-15T14:48:39;12.13;;;2.47;;
6290;SDS011;3178;48.730;8.990;2023-04-15T14:51:05;9.70;;;2.70;;
6290;SDS011;3178;48.730;8.990;2023-04-15T14:53:30;3.70;;;2.43;;
6290;SDS011;3178;48.730;8.990;2023-04-15T14:55:56;4.70;;;1.83;;
6290;SDS011;3178;48.730;8.990;2023-04-15T14:58:21;5.20;;;2.33;;
6290;SDS011;3178;48.730;8.990;2023-04-15T15:00:47;8.10;;;2.20;;
6290;SDS011;3178;48.730;8.990;2023-04-15T15:03:13;4.57;;;2.30;;
6290;SDS011;3178;48.730;8.990;2023-04-15T15:05:42;6.10;;;3.00;;
6290;SDS011;3178;48.730;8.990;2023-04-15T15:08:09;12.53;;;3.20;;
6290;SDS011;3178;48.730;8.990;2023-04-15T15:10:35;2.90;;;2.50;;
6290;SDS011;3178;48.730;8.990;2023-04-15T15:13:03;9.73;;;3.83;;
6290;SDS011;3178;48.730;8.990;2023-04-15T15:15:30;4.03;;;2.83;;
6290;SDS011;3178;48.730;8.990;2023-04-15T15:17:56;2.93;;;2.30;;
6290;SDS011;3178;48.730;8.990;2023-04-15T15:20:22;9.60;;;3.00;;
6290;SDS011;3178;48.730;8.990;2023-04-15T15:22:48;3.20;;;2.17;;
6290;SDS011;3178;48.730;8.990;2023-04-15T15:25:14;5.03;;;2.40;;
6290;SDS011;3178;48.730;8.990;2023-04-15T15:27:39;5.30;;;3.00;;
6290;SDS011;3178;48.730;8.990;2023-04-15T15:30:05;6.33;;;2.77;;
6290;SDS011;3178;48.730;8.990;2023-04-15T15:32:31;4.80;;;2.43;;
6290;SDS011;3178;48.730;8.990;2023-04-15T15:34:57;7.20;;;2.57;;
6290;SDS011;3178;48.730;8.990;2023-04-15T15:37:22;5.20;;;1.90;;
6290;SDS011;3178;48.730;8.990;2023-04-15T15:39:48;6.67;;;2.67;;